Terminal Aerodrome Forecast
Issued by NWS

Home | Current Version | Previous Version | Text Only | Print | Product List | Glossary On
Versions: 1 2 3 4 5 6 7 8 9 10 11 12 13 14 15 16 17 18
000
FTUS46 KMTR 281729
TAFOAK
TAF
KOAK 281729Z 2818/2924 26010KT P6SM BKN018
     FM281900 27011KT P6SM FEW020
     FM282100 28015KT P6SM FEW020
     FM290400 28010KT P6SM BKN015
     FM291000 26007KT P6SM OVC008
     FM291730 25008KT P6SM FEW015
     FM292100 29011KT P6SM FEW015=

USA.gov is the U.S. government's official web portal to all federal, state and local government web resources and services.